Date,TemperatureHighF,TemperatureAvgF,TemperatureLowF,DewpointHighF,DewpointAvgF,DewpointLowF,HumidityHigh,HumidityAvg,HumidityLow,PressureMaxIn,PressureMinIn,WindSpeedMaxMPH,WindSpeedAvgMPH,GustSpeedMaxMPH,PrecipitationSumIn
2012-1-1,52.5,42.9,32.7,44.5,30.8,21.4,84,66,30,29.65,29.23,15,3,19,0.16
2012-1-2,48.6,39.2,31.8,43.6,10.1,2.4,83,31,22,29.35,29.21,14,6,22,0.00
2012-1-3,31.6,23.9,12.9,7.8,-4.2,-14.8,43,29,23,29.62,29.29,21,7,24,0.00
2012-1-4,31.1,19.6,10.8,-2.4,-9.7,-16.6,32,26,23,29.77,29.47,11,4,20,0.00
2012-1-5,43.5,31.2,23.5,9.9,3.4,-4.0,42,30,23,29.50,29.38,11,3,19,0.00
2012-1-6,50.2,39.0,28.6,17.5,12.8,8.4,47,35,24,29.50,29.32,12,2,16,0.00
2012-1-7,61.7,44.0,30.0,20.9,17.0,12.0,57,36,19,29.50,29.26,14,2,17,0.00
2012-1-8,45.1,36.9,29.5,17.0,9.2,2.1,53,32,22,29.83,29.50,14,3,17,0.00
2012-1-9,44.4,32.9,26.4,10.6,3.7,0.1,41,29,20,29.88,29.56,9,2,10,0.00
2012-1-10,47.5,36.7,27.5,15.2,11.5,8.8,53,36,24,29.56,29.41,11,3,17,0.00
2012-1-11,47.7,36.3,25.7,28.0,13.8,10.1,59,40,24,29.71,29.50,12,2,13,0.00
2012-1-12,41.2,39.7,37.9,33.8,30.7,26.2,78,70,56,29.50,29.09,17,4,22,0.87
2012-1-13,50.2,36.9,28.6,48.9,18.1,-2.6,97,52,25,29.29,28.85,19,6,26,0.08
2012-1-14,37.6,33.1,28.6,4.8,2.8,1.8,31,27,24,29.56,29.26,17,6,21,0.00
2012-1-15,37.0,37.0,37.0,3.6,3.6,3.6,24,24,24,30.03,29.56,15,6,22,0.00
2012-1-16,37.0,35.4,29.3,26.9,6.6,1.7,75,31,24,30.12,29.71,12,4,18,0.00
2012-1-17,47.3,39.8,34.3,44.2,33.8,26.1,90,79,59,29.71,29.12,9,2,11,0.24
2012-1-18,48.4,35.3,21.0,43.4,5.9,-9.3,85,31,21,29.71,29.12,24,7,27,0.00
2012-1-19,33.8,24.8,14.4,22.0,1.4,-9.9,62,37,23,29.83,29.47,8,2,11,0.00
2012-1-20,34.3,28.4,23.5,12.1,-0.7,-7.9,41,28,23,29.85,29.44,16,4,21,0.00
2012-1-21,25.0,21.8,18.1,9.2,3.5,-8.3,60,46,24,29.83,29.56,14,4,15,0.00
2012-1-22,31.3,22.8,11.7,10.5,2.0,-7.1,48,40,33,30.06,29.80,8,2,10,0.00
2012-1-23,51.8,39.0,30.2,50.0,31.3,10.4,96,75,42,29.97,29.47,8,2,12,0.79
2012-1-24,55.4,46.9,38.5,50.0,29.0,13.4,96,57,26,29.68,29.47,14,4,17,0.00
2012-1-25,47.5,38.7,33.8,18.2,12.3,9.5,47,34,24,29.88,29.68,15,3,15,0.00
2012-1-26,41.5,36.3,34.0,37.7,19.3,10.2,86,53,32,29.80,29.44,6,2,10,0.24
2012-1-27,56.5,44.9,41.4,54.5,35.6,14.1,96,75,31,29.44,28.94,17,3,27,0.51
2012-1-28,46.2,39.2,31.6,19.8,12.8,7.2,50,34,25,29.59,29.35,12,3,17,0.00
2012-1-29,44.6,37.0,32.0,7.2,3.0,-1.6,32,24,20,29.71,29.53,15,5,19,0.00
2012-1-30,40.5,34.7,28.9,7.1,3.7,-1.0,33,27,21,29.88,29.50,16,4,18,0.00
2012-1-31,59.2,41.9,30.9,17.0,11.7,3.8,41,30,17,29.83,29.59,11,2,14,0.00
2012-2-1,62.8,50.2,38.5,32.6,21.3,15.0,60,33,21,29.62,29.47,14,4,20,0.04
2012-2-2,45.1,38.8,32.7,18.3,13.1,6.2,52,35,28,29.77,29.56,13,4,17,0.00
2012-2-3,45.1,34.0,26.2,7.7,3.6,0.2,32,28,20,30.00,29.77,19,5,23,0.00
2012-2-4,48.0,38.5,30.2,13.5,8.5,4.5,43,29,22,29.85,29.65,10,3,14,0.00
2012-2-5,41.7,31.6,24.8,6.1,3.1,0.7,42,30,21,29.71,29.62,9,2,12,0.00
2012-2-6,55.4,37.8,21.0,14.0,9.0,4.5,53,32,17,29.65,29.50,13,4,15,0.00
2012-2-7,50.5,38.8,28.9,14.0,10.7,5.8,48,32,21,29.80,29.47,15,3,16,0.00
2012-2-8,39.7,33.3,27.9,5.8,1.4,-2.8,31,25,21,29.91,29.62,9,2,11,0.00
2012-2-9,49.6,35.0,27.5,12.8,6.9,1.6,51,32,19,29.71,29.56,15,3,17,0.00
2012-2-10,48.6,36.3,24.6,12.1,8.5,4.6,51,33,19,29.71,29.47,12,3,17,0.00
2012-2-11,39.0,35.5,27.9,20.2,10.8,1.6,57,36,29,29.47,29.12,19,4,20,0.00
2012-2-12,32.7,24.8,16.2,2.8,-5.1,-12.7,32,26,23,29.44,29.18,17,7,25,0.00
2012-2-13,48.2,33.7,23.9,7.9,2.3,-5.2,32,26,19,29.59,29.41,16,5,21,0.00
2012-2-14,47.3,38.6,32.0,19.8,5.5,1.2,45,25,19,29.71,29.56,9,2,10,0.00
2012-2-15,48.6,41.2,35.4,30.4,22.5,15.2,69,49,33,29.85,29.62,6,2,9,0.00
2012-2-16,41.4,36.0,28.4,36.0,22.1,12.4,83,59,31,29.88,29.59,6,1,9,0.24
2012-2-17,53.6,43.3,33.8,40.3,22.2,4.5,86,49,20,29.59,29.50,12,3,16,0.12
2012-2-18,50.2,38.1,28.9,24.6,12.8,6.4,65,37,19,29.62,29.44,13,3,14,0.08
2012-2-19,49.6,37.5,31.1,25.6,9.9,2.7,73,34,19,29.62,29.53,14,2,17,0.00
2012-2-20,44.1,33.7,26.2,6.9,3.9,-0.2,41,28,20,29.88,29.53,17,4,20,0.00
2012-2-21,44.2,34.3,20.8,28.6,12.7,4.7,66,42,23,29.88,29.44,15,3,19,0.00
2012-2-22,59.5,45.5,34.3,29.4,21.6,11.5,74,44,19,29.44,29.12,14,3,15,0.00
2012-2-23,58.1,46.8,36.3,36.8,20.4,7.6,79,40,17,29.38,28.97,17,4,22,0.00
2012-2-24,40.8,37.6,35.1,36.2,28.2,12.2,84,70,34,29.38,28.91,11,2,24,1.10
2012-2-25,45.9,38.7,31.5,20.1,8.4,-0.3,44,28,22,29.47,28.94,26,9,30,0.04
2012-2-26,46.8,34.4,27.9,7.4,2.2,-2.8,36,25,19,29.97,29.47,14,4,17,0.00
2012-2-27,55.2,39.9,23.2,22.9,14.7,4.5,52,37,25,29.94,29.65,20,4,20,0.00
2012-2-28,52.5,42.6,34.9,19.1,9.1,4.7,37,25,18,29.97,29.65,21,4,22,0.00
2012-2-29,39.9,35.7,32.7,30.1,18.2,6.1,78,53,29,29.94,29.38,11,2,13,0.16
2012-3-1,38.1,36.1,30.9,30.7,26.6,12.6,79,69,46,29.56,29.21,12,3,13,0.35
2012-3-2,38.1,32.9,28.4,31.7,17.8,10.3,78,54,43,29.74,29.44,10,2,15,0.08
2012-3-3,58.6,47.0,37.9,48.2,28.9,5.0,94,59,19,29.44,29.00,14,4,17,0.31
2012-3-4,50.9,40.1,34.2,10.9,5.1,1.9,27,23,19,29.26,29.12,22,4,22,0.00
2012-3-5,46.2,34.4,24.4,7.4,0.4,-7.2,28,23,20,29.88,29.26,17,6,18,0.00
2012-3-6,48.6,32.8,21.4,10.3,-0.1,-8.5,37,24,19,30.18,29.88,11,3,14,0.00
2012-3-7,60.8,44.7,28.6,28.3,16.3,9.9,51,33,19,30.12,29.88,13,3,16,0.00
2012-3-8,67.3,55.1,41.5,39.4,31.0,25.1,78,43,23,29.88,29.44,17,6,21,0.00
2012-3-9,57.2,43.6,35.4,36.7,13.3,3.1,56,31,18,29.80,29.41,17,5,25,0.04
2012-3-10,47.3,34.9,28.0,7.2,1.1,-5.0,37,23,19,30.06,29.77,15,4,19,0.00
2012-3-11,61.7,42.6,25.9,18.9,11.1,4.5,49,29,16,30.03,29.85,16,3,16,0.00
2012-3-12,73.9,53.2,34.5,25.0,19.5,16.2,50,29,15,29.88,29.74,11,2,15,0.00
2012-3-13,72.1,58.3,50.0,46.8,35.6,21.1,79,45,24,29.74,29.56,13,3,15,0.16
2012-3-14,72.9,57.6,47.1,42.9,26.3,11.1,72,35,14,29.83,29.59,13,3,15,0.00
2012-3-15,49.1,45.1,42.3,35.4,28.6,24.1,73,53,38,29.94,29.83,8,4,11,0.00
2012-3-16,50.2,45.1,41.5,39.3,32.5,26.8,78,62,48,29.88,29.71,8,2,11,0.04
2012-3-17,65.5,50.9,42.6,43.2,32.2,23.2,82,54,23,29.94,29.74,10,2,11,0.00
2012-3-18,73.0,54.6,41.7,38.9,33.6,26.9,76,49,21,29.94,29.80,8,3,11,0.00
2012-3-19,78.3,59.6,42.8,39.9,34.1,30.7,66,42,21,29.88,29.77,11,2,13,0.00
2012-3-20,76.8,60.9,47.3,49.5,37.1,30.7,73,44,21,29.97,29.85,11,2,14,0.00
2012-3-21,72.5,62.6,56.3,55.0,47.7,37.7,81,61,29,30.00,29.91,8,2,10,0.00
2012-3-22,85.8,67.5,58.5,54.8,43.7,31.8,81,49,16,29.91,29.68,11,3,15,0.00
2012-3-23,73.2,63.6,55.6,51.3,34.9,23.1,78,39,16,29.74,29.65,11,2,14,0.00
2012-3-24,61.3,54.9,48.9,33.8,17.2,10.0,45,23,17,29.71,29.59,11,3,15,0.00
2012-3-25,49.5,46.4,43.0,37.4,26.4,16.3,67,46,27,29.59,29.26,6,1,11,0.16
2012-3-26,52.9,43.8,33.6,40.0,17.3,-1.0,75,40,19,29.62,29.21,26,6,30,0.00
2012-3-27,54.9,37.4,27.1,12.2,1.6,-5.7,24,22,18,29.83,29.62,19,6,23,0.00
2012-3-28,69.3,47.7,34.2,40.1,20.1,3.3,77,34,20,29.74,29.18,10,2,12,0.31
2012-3-29,55.8,49.6,42.3,30.9,20.0,11.7,43,31,25,29.56,29.18,22,6,22,0.00
2012-3-30,63.1,46.4,36.9,16.5,10.5,5.4,30,23,16,29.68,29.56,14,4,16,0.00
2012-3-31,46.2,40.8,38.5,32.4,26.8,14.5,77,58,29,29.62,29.47,11,3,11,0.24
2012-4-1,52.2,45.7,39.7,38.9,28.2,18.2,74,54,27,29.47,29.18,11,2,12,0.24
2012-4-2,63.0,47.0,39.9,36.5,17.4,5.1,69,34,16,29.44,29.15,18,6,25,0.00
2012-4-3,72.9,48.4,30.6,24.1,11.2,4.7,44,23,14,29.50,29.35,21,4,22,0.00
2012-4-4,75.9,55.3,42.4,25.5,14.6,9.4,28,20,15,29.35,29.15,20,5,22,0.00
2012-4-5,66.4,47.1,38.8,20.3,11.6,5.4,31,24,15,29.53,29.32,15,6,20,0.00
2012-4-6,63.7,45.3,31.1,16.7,10.1,4.8,42,25,16,29.59,29.50,15,5,22,0.00
2012-4-7,66.6,49.0,35.1,17.5,9.6,2.9,32,20,15,29.62,29.50,20,5,23,0.00
2012-4-8,76.5,52.8,36.0,25.8,13.5,7.9,39,21,14,29.59,29.26,18,4,25,0.00
2012-4-9,67.3,55.2,47.3,18.8,13.1,10.1,24,19,15,29.29,29.21,25,8,28,0.00
2012-4-10,67.3,53.3,39.9,21.3,13.9,6.6,29,21,17,29.38,29.23,14,4,18,0.00
2012-4-11,63.5,48.1,38.3,21.2,16.2,11.9,47,29,18,29.50,29.35,13,4,15,0.00
2012-4-12,69.8,49.7,41.5,25.2,19.6,13.5,44,31,16,29.71,29.47,13,4,17,0.00
2012-4-13,76.6,51.6,35.1,25.6,19.4,12.1,59,32,14,29.80,29.68,10,2,15,0.00
2012-4-14,76.8,53.6,37.4,25.7,20.5,15.3,47,30,15,29.77,29.62,13,2,14,0.00
2012-4-15,79.0,65.7,55.4,41.6,35.3,24.2,54,34,20,29.68,29.56,13,2,16,0.00
2012-4-16,86.5,69.7,54.5,46.2,39.8,31.9,73,39,16,29.65,29.56,11,3,17,0.00
2012-4-17,90.5,67.9,57.7,50.7,30.4,14.5,74,29,12,29.80,29.53,12,4,20,0.00
2012-4-18,66.4,55.6,46.6,21.3,15.9,10.1,26,21,17,29.85,29.74,14,4,20,0.00
2012-4-19,78.8,59.3,50.7,34.1,27.1,19.6,51,31,15,29.74,29.65,11,4,13,0.00
2012-4-20,72.1,59.6,45.3,39.4,31.9,25.7,70,38,22,29.68,29.50,13,3,16,0.00
2012-4-21,75.4,63.6,56.1,52.5,42.7,31.6,82,50,22,29.50,29.35,14,4,18,0.00
2012-4-22,59.7,49.6,46.2,43.1,36.0,25.5,76,61,37,29.38,29.00,17,5,19,1.77
2012-4-23,53.6,49.7,45.3,51.6,37.2,24.5,93,65,39,29.00,28.76,15,5,24,1.30
2012-4-24,58.8,49.6,40.3,27.6,19.5,13.5,46,31,19,29.29,28.97,15,5,17,0.00
2012-4-25,63.1,50.1,37.2,23.3,18.6,14.9,50,30,18,29.50,29.29,13,2,16,0.00
2012-4-26,57.2,48.5,34.0,50.7,31.2,17.4,83,54,26,29.53,29.18,11,2,14,0.00
2012-4-27,61.0,50.9,40.1,50.9,18.6,6.4,82,31,16,29.71,29.18,21,7,24,0.00
2012-4-28,65.8,50.3,32.9,17.1,12.5,7.2,43,23,15,29.74,29.65,12,3,17,0.00
2012-4-29,73.4,59.6,46.2,23.8,13.9,6.5,20,16,14,29.83,29.62,16,4,22,0.00
2012-4-30,69.3,50.2,35.6,24.1,13.5,4.7,35,24,15,29.94,29.80,10,3,13,0.00
2012-5-1,71.4,54.4,48.0,49.3,37.5,23.1,87,55,23,29.83,29.59,10,3,11,0.31
2012-5-2,57.4,51.7,47.8,39.6,33.0,29.5,66,49,37,29.80,29.71,9,3,10,0.00
2012-5-3,55.4,52.6,50.5,48.5,45.8,35.7,85,78,53,29.80,29.71,11,2,11,0.16
2012-5-4,81.5,61.3,51.6,52.8,46.7,36.2,93,64,20,29.71,29.53,8,2,10,0.39
2012-5-5,65.1,59.3,55.6,54.4,45.8,38.9,91,63,39,29.68,29.53,6,1,8,0.00
2012-5-6,76.3,60.3,50.9,49.0,35.6,25.9,77,44,18,29.74,29.65,9,2,14,0.00
2012-5-7,72.0,59.2,48.2,46.7,32.3,25.2,73,39,22,29.77,29.71,13,3,15,0.00
2012-5-8,66.0,58.1,53.6,51.8,39.3,29.9,78,51,34,29.74,29.47,17,5,24,0.31
2012-5-9,68.7,62.6,58.1,59.1,55.9,48.1,89,79,48,29.47,29.21,8,1,8,0.08
2012-5-10,72.1,58.4,48.6,57.4,33.5,16.1,81,44,16,29.41,29.12,19,4,20,0.71
2012-5-11,82.8,58.7,46.6,28.8,21.5,14.6,40,25,14,29.71,29.41,14,4,18,0.00
2012-5-12,97.0,63.9,40.5,33.8,26.5,20.9,55,28,11,29.80,29.71,13,2,14,0.00
2012-5-13,88.5,67.7,51.6,41.0,33.4,25.6,58,32,13,29.80,29.71,14,3,15,0.00
2012-5-14,72.3,66.1,62.6,52.9,45.4,36.0,66,48,29,29.80,29.71,9,2,11,0.00
2012-5-15,65.8,63.1,60.1,59.5,53.3,40.4,84,72,40,29.77,29.59,11,2,13,0.79
2012-5-16,80.6,67.4,63.0,61.8,55.2,41.1,93,69,25,29.59,29.47,10,2,11,0.00
2012-5-17,83.8,62.1,51.3,56.5,26.8,19.3,76,28,14,29.77,29.53,14,4,15,0.00
2012-5-18,81.5,60.8,45.3,34.5,27.1,18.8,65,31,14,29.83,29.77,10,2,12,0.00
2012-5-19,90.3,64.9,46.9,34.0,29.4,23.2,59,30,12,29.83,29.74,10,2,13,0.00
2012-5-20,81.3,65.6,51.8,39.7,27.3,14.5,62,27,14,29.91,29.77,10,2,13,0.00
2012-5-21,66.2,61.4,55.8,60.5,45.8,20.5,88,61,25,29.88,29.65,8,2,10,0.35
2012-5-22,74.7,65.9,62.8,60.2,56.4,44.5,90,72,34,29.65,29.44,8,2,10,0.24
2012-5-23,81.1,67.9,61.3,62.1,52.8,40.5,82,61,24,29.71,29.47,9,2,10,0.16
2012-5-24,73.6,65.5,61.0,61.5,52.1,42.3,91,65,33,29.85,29.68,8,2,10,0.00
2012-5-25,71.4,65.9,60.6,62.3,58.9,53.4,93,79,53,29.85,29.77,6,2,8,0.28
2012-5-26,88.7,75.1,68.2,67.6,55.3,43.2,92,56,21,29.77,29.71,10,2,10,0.00
2012-5-27,90.9,73.4,64.8,58.2,43.2,30.6,74,39,12,29.80,29.68,8,2,10,0.00
2012-5-28,96.3,76.8,64.8,59.3,52.6,40.7,77,48,17,29.68,29.53,8,2,11,0.00
2012-5-29,95.5,77.9,67.3,62.3,53.9,41.9,78,48,17,29.56,29.35,15,3,19,0.12
2012-5-30,87.6,72.8,66.6,63.5,51.8,35.0,80,52,19,29.44,29.35,11,1,12,0.00
2012-5-31,92.7,71.3,62.2,56.3,37.7,24.9,76,34,12,29.56,29.38,13,3,15,0.00
2012-6-1,72.3,64.0,55.8,53.0,36.3,29.7,83,38,23,29.68,29.53,15,5,18,0.08
2012-6-2,87.8,65.9,57.7,63.2,49.0,30.9,94,62,13,29.53,29.29,11,3,15,1.73
2012-6-3,81.3,66.2,54.9,45.0,36.1,27.8,64,35,17,29.38,29.29,11,3,17,0.04
2012-6-4,62.6,57.0,51.8,45.7,34.2,25.4,64,43,25,29.44,29.26,13,4,17,0.00
2012-6-5,73.2,57.6,50.2,49.1,35.3,26.2,72,45,22,29.56,29.41,10,2,16,0.39
2012-6-6,85.3,62.2,49.6,47.2,39.7,28.2,76,48,13,29.62,29.53,10,1,13,0.04
2012-6-7,96.4,67.7,55.0,50.9,38.7,26.0,76,40,11,29.62,29.53,6,2,11,0.00
2012-6-8,93.4,69.7,54.0,46.3,37.5,27.2,69,35,11,29.59,29.44,8,2,12,0.00
2012-6-9,79.7,67.5,61.2,54.5,43.5,36.3,68,43,21,29.62,29.44,8,1,11,0.00
2012-6-10,90.9,71.2,59.4,55.5,47.2,38.1,75,46,18,29.83,29.59,9,2,11,0.00
2012-6-11,79.2,67.5,61.5,55.0,42.9,32.4,72,44,20,29.88,29.83,11,3,13,0.00
2012-6-12,70.0,65.7,61.2,61.9,55.0,47.5,85,70,45,29.83,29.56,10,4,15,0.31
2012-6-13,70.0,66.7,64.9,63.2,58.4,48.8,90,76,48,29.68,29.50,7,1,10,0.79
2012-6-14,84.9,68.9,60.4,59.5,43.4,33.3,84,43,18,29.88,29.68,12,3,15,0.00
2012-6-15,86.7,68.9,60.6,58.2,38.8,24.7,89,40,13,29.91,29.85,10,3,17,0.00
2012-6-16,87.4,67.7,55.4,47.6,38.4,28.2,72,38,16,29.94,29.85,10,3,12,0.00
2012-6-17,76.6,64.4,57.2,50.6,38.6,31.2,74,40,21,29.88,29.74,10,3,11,0.00
2012-6-18,80.4,64.2,54.3,46.9,38.2,30.9,67,41,20,29.77,29.71,10,2,13,0.00
2012-6-19,75.0,66.2,56.3,56.4,47.6,41.2,72,52,34,29.80,29.68,10,2,10,0.00
2012-6-20,104.9,81.5,64.0,59.3,52.5,40.9,79,43,12,29.68,29.53,8,2,10,0.00
2012-6-21,107.1,85.2,72.0,68.3,52.5,37.9,76,38,11,29.56,29.38,8,2,13,0.00
2012-6-22,94.3,78.2,70.9,64.3,56.8,42.4,77,53,17,29.44,29.35,10,1,12,0.39
2012-6-23,95.7,75.1,66.4,64.1,44.4,28.5,79,40,11,29.62,29.41,10,3,13,0.04
2012-6-24,94.8,74.7,61.7,48.5,36.8,27.3,48,28,11,29.62,29.53,9,3,11,0.00
2012-6-25,76.5,66.5,59.7,63.2,52.4,38.4,83,62,30,29.53,29.29,8,3,16,0.67
2012-6-26,75.0,64.1,54.1,38.4,34.2,29.9,49,34,21,29.35,29.23,3,3,3,0.00
2012-6-27,96.4,71.5,60.4,35.7,30.5,23.4,36,23,11,29.41,29.26,3,3,3,0.00
2012-6-28,104.0,75.8,58.6,49.8,37.9,30.9,51,28,9,29.41,29.32,3,3,3,0.00
2012-6-29,106.2,80.8,67.8,61.3,50.5,40.5,75,39,11,29.35,29.23,3,3,3,0.00
2012-6-30,106.5,81.0,67.1,58.6,45.4,31.1,71,33,9,29.41,29.29,3,3,3,0.00
2012-7-1,104.5,80.8,66.9,60.7,49.6,39.9,66,37,12,29.53,29.38,3,3,3,0.00
2012-7-2,100.4,77.1,64.0,58.2,41.4,30.6,62,31,10,29.53,29.47,3,3,3,0.00
2012-7-3,97.0,76.7,61.0,54.9,43.4,33.5,71,34,13,29.53,29.44,3,3,3,0.00
2012-7-4,104.5,80.0,70.7,64.8,54.5,38.7,76,46,12,29.44,29.32,3,3,3,0.00
2012-7-5,94.5,80.1,70.2,64.8,49.4,35.5,76,39,14,29.32,29.12,3,3,3,0.00
2012-7-6,109.4,80.5,64.2,56.7,46.0,32.6,68,35,8,29.15,29.09,3,3,3,0.00
2012-7-7,92.8,79.4,69.6,59.8,52.0,40.1,70,41,17,29.12,28.67,3,3,3,0.00
2012-7-8,105.3,81.3,68.5,59.1,46.0,31.1,71,33,9,17.72,17.72,3,3,3,0.00
2012-7-9,98.6,76.7,66.0,48.8,38.6,28.2,48,28,10,17.72,17.72,3,3,3,0.00
2012-7-10,98.8,76.0,63.0,53.4,38.0,27.2,63,29,10,17.72,17.72,3,3,3,0.00
2012-7-11,96.8,77.5,65.5,57.6,45.1,31.0,72,36,11,17.72,17.72,3,3,3,0.00
2012-7-12,98.2,77.8,63.9,56.6,44.8,32.9,71,36,11,17.72,17.72,3,3,3,0.00
2012-7-13,89.6,77.4,66.7,57.8,48.4,40.3,72,39,19,17.72,17.72,3,3,3,0.00
2012-7-14,99.9,80.7,70.2,62.6,45.9,33.4,73,34,11,17.72,17.72,3,3,3,0.00
2012-7-15,87.3,76.9,66.7,63.1,53.2,47.5,73,46,29,17.72,17.72,3,3,3,0.04
2012-7-16,95.9,85.3,74.5,57.4,47.0,36.5,55,28,14,29.50,29.44,9,2,14,2.40
2012-7-17,102.6,84.2,70.9,64.8,50.0,37.9,76,37,12,29.47,29.38,11,3,15,0.00
2012-7-18,99.3,83.2,74.8,69.7,57.4,43.6,76,46,16,29.53,29.41,14,2,17,0.59
2012-7-19,93.9,73.4,66.7,68.8,47.9,30.8,81,44,11,29.65,29.53,6,1,10,0.00
2012-7-20,68.9,65.3,61.3,60.2,55.0,49.9,80,70,51,29.68,29.62,10,1,12,0.51
2012-7-21,96.4,70.5,61.0,60.0,43.6,28.2,82,45,11,29.80,29.68,8,2,9,0.00
2012-7-22,92.8,73.1,57.6,51.0,42.6,34.7,68,37,14,29.80,29.74,10,2,11,0.00
2012-7-23,90.0,75.1,66.7,66.6,57.0,47.1,84,56,27,29.80,29.44,11,2,13,0.59
2012-7-24,102.4,79.6,69.4,65.8,50.8,32.9,80,42,9,29.44,29.23,15,3,17,0.00
2012-7-25,100.9,74.9,63.1,49.9,36.0,29.1,51,26,10,29.53,29.41,12,3,15,0.00
2012-7-26,100.0,76.0,68.4,64.7,52.2,42.8,76,47,15,29.44,29.26,13,3,24,0.55
2012-7-27,94.1,79.3,71.1,68.8,56.8,41.5,81,51,17,29.53,29.32,10,2,10,0.00
2012-7-28,79.3,72.7,68.5,65.9,61.4,53.0,81,69,41,29.62,29.53,8,2,11,1.30
2012-7-29,95.5,72.8,68.0,63.2,52.9,33.8,84,55,14,29.74,29.56,9,2,10,0.00
2012-7-30,91.8,72.4,63.7,59.8,49.7,34.7,80,49,14,29.77,29.71,8,1,10,0.00
2012-7-31,78.3,69.6,63.1,58.3,51.5,42.2,79,54,28,29.74,29.56,8,1,10,0.00
2012-8-1,83.5,73.5,65.5,64.6,57.4,48.7,83,60,30,29.59,29.47,9,2,13,0.00
2012-8-2,106.5,80.4,69.8,66.9,53.3,33.0,87,48,9,29.59,29.50,7,2,10,0.00
2012-8-3,93.9,80.9,69.3,64.0,55.9,42.1,78,47,17,29.77,29.59,8,2,10,0.00
2012-8-4,99.3,81.4,71.6,68.4,57.3,37.8,82,50,13,29.88,29.77,11,3,13,0.00
2012-8-5,92.1,81.2,74.7,70.5,62.0,52.2,80,56,26,29.88,29.65,13,4,15,0.28
2012-8-6,99.9,78.3,67.6,71.7,49.1,30.3,83,43,10,29.68,29.59,9,2,12,0.20
2012-8-7,93.0,74.0,62.1,55.7,44.8,34.4,75,40,14,29.65,29.59,9,2,10,0.00
2012-8-8,88.9,76.3,64.2,62.3,51.4,39.0,72,46,18,29.65,29.59,8,1,10,0.00
2012-8-9,90.7,79.4,70.9,68.1,56.0,40.5,81,50,18,29.62,29.50,10,2,15,0.00
2012-8-10,87.3,76.9,72.3,70.0,63.6,49.2,81,65,27,29.56,29.41,10,2,13,1.18
2012-8-11,91.6,77.7,70.7,72.5,60.7,44.7,90,60,20,29.59,29.44,13,2,15,0.04
2012-8-12,101.3,80.3,72.1,67.9,51.3,32.2,80,43,10,29.62,29.56,9,2,10,0.00
2012-8-13,102.2,76.1,63.7,56.0,45.6,31.2,72,39,9,29.65,29.56,10,2,11,0.00
2012-8-14,81.3,72.2,63.0,60.8,52.1,44.0,74,51,27,29.62,29.53,9,1,9,0.00
2012-8-15,82.2,73.6,67.6,66.7,58.8,47.3,86,63,31,29.56,29.47,9,1,15,3.19
2012-8-16,100.8,75.9,67.1,64.0,49.3,30.5,83,47,10,29.53,29.50,13,2,14,0.00
2012-8-17,91.8,75.2,61.7,61.7,49.3,40.3,72,45,18,29.53,29.41,12,2,16,0.00
2012-8-18,89.4,70.6,61.9,63.7,48.0,29.2,80,51,13,29.59,29.47,9,2,10,0.63
2012-8-19,76.8,66.6,56.1,50.2,42.4,33.4,74,45,22,29.62,29.56,6,1,8,0.00
2012-8-20,90.5,70.6,59.7,54.8,45.0,34.7,82,45,15,29.59,29.47,8,1,10,0.00
2012-8-21,87.3,72.0,64.8,58.2,45.5,32.3,76,44,16,29.74,29.56,9,1,10,0.00
2012-8-22,92.1,73.0,61.2,54.9,45.6,34.5,75,42,14,29.80,29.74,11,1,11,0.00
2012-8-23,96.4,74.4,61.5,56.1,48.2,31.4,73,45,11,29.80,29.74,9,2,13,0.00
2012-8-24,92.3,74.3,64.4,59.2,47.9,35.3,81,45,14,29.83,29.77,8,1,8,0.00
2012-8-25,85.5,72.8,65.5,62.3,47.6,31.8,81,46,16,29.97,29.83,9,2,10,0.00
2012-8-26,90.3,71.7,62.1,55.4,45.2,27.0,73,44,14,29.97,29.91,8,2,10,0.00
2012-8-27,81.3,66.7,61.3,58.0,52.4,47.4,75,62,31,29.91,29.77,8,1,11,0.00
2012-8-30,92.5,74.6,60.8,42.9,35.3,27.8,51,27,12,29.71,29.65,8,2,10,0.04
2012-8-31,102.4,74.1,56.1,48.4,41.6,30.7,70,37,9,29.68,29.53,10,2,12,0.00
2012-9-1,89.2,75.5,65.5,57.9,49.6,39.1,72,43,18,29.74,29.56,8,2,12,0.00
2012-9-2,82.2,71.9,65.7,64.4,54.9,43.7,81,58,26,29.77,29.71,8,1,10,0.63
2012-9-3,75.2,69.1,63.0,61.2,51.2,39.4,80,55,31,29.83,29.77,8,2,10,0.00
2012-9-4,78.8,73.3,68.2,70.6,61.4,54.2,82,67,44,29.77,29.50,13,3,13,0.00
2012-9-5,99.3,77.0,69.8,71.8,60.6,34.5,88,62,11,29.50,29.41,15,2,15,0.75
2012-9-6,84.0,71.8,65.1,63.9,56.1,44.6,83,61,26,29.56,29.47,6,1,9,0.00
2012-9-7,89.8,76.4,66.7,65.1,54.9,41.2,86,53,20,29.59,29.50,8,2,10,0.00
2012-9-8,80.2,73.3,65.7,68.2,60.0,54.1,85,64,43,29.53,29.26,21,4,25,0.51
2012-9-9,92.1,68.5,62.2,58.1,44.8,29.2,78,48,12,29.56,29.41,11,2,13,0.00
2012-9-10,73.9,62.6,54.7,43.8,31.3,20.1,54,33,16,29.74,29.53,19,4,19,0.00
2012-9-11,88.5,59.5,45.9,37.7,31.8,24.7,67,39,13,29.88,29.74,9,2,11,0.00
2012-9-12,90.0,64.4,49.3,45.5,37.3,27.3,73,42,12,29.97,29.88,8,1,10,0.00
2012-9-13,86.0,67.3,52.9,51.6,41.8,32.9,70,44,16,29.97,29.88,9,1,9,0.00
2012-9-14,83.3,68.3,55.6,51.8,43.9,34.7,70,45,19,29.91,29.74,10,2,13,0.00
2012-9-15,76.5,64.0,53.2,57.4,37.9,24.5,81,43,15,29.74,29.65,20,3,20,0.00
2012-9-16,77.7,60.4,46.9,40.4,33.8,24.7,66,40,15,29.74,29.65,8,2,14,0.00
2012-9-17,81.3,62.4,48.0,41.8,36.7,27.2,71,43,14,29.71,29.68,8,1,9,0.00
2012-9-18,73.6,67.7,56.3,66.3,58.9,40.7,87,74,53,29.68,29.29,24,6,32,3.15
2012-9-19,77.0,63.3,51.4,63.5,35.9,20.1,84,41,15,29.80,29.35,14,3,20,0.00
2012-9-20,66.9,57.5,47.7,43.2,36.9,30.2,65,47,31,29.83,29.74,10,2,11,0.00
2012-9-21,76.3,60.5,51.6,47.1,37.7,24.8,75,48,15,29.74,29.65,8,1,9,0.00
2012-9-22,70.7,63.5,54.5,60.3,48.9,37.6,77,60,35,29.65,29.44,14,3,17,0.35
2012-9-23,77.7,61.1,48.9,55.3,36.5,21.2,81,46,15,29.74,29.47,11,2,15,0.08
2012-9-24,75.6,55.4,46.6,41.9,30.3,18.5,75,43,15,29.74,29.71,9,2,13,0.00
2012-9-25,75.9,58.7,41.5,42.6,32.2,23.2,65,41,15,29.77,29.74,11,2,16,0.00
2012-9-26,75.7,65.8,60.4,58.9,50.2,41.5,80,59,30,29.77,29.65,10,1,11,0.04
2012-9-27,77.9,66.3,61.0,60.4,45.7,28.2,85,54,18,29.83,29.65,8,1,9,0.00
2012-9-28,63.5,59.4,57.2,55.1,50.7,33.4,84,74,36,29.83,29.56,7,2,10,1.10
2012-9-29,62.1,58.7,56.1,51.2,46.2,38.7,82,65,42,29.56,29.47,8,2,8,0.00
2012-9-30,72.5,60.1,54.1,50.8,39.6,26.7,80,51,21,29.50,29.38,8,2,11,0.00
2012-10-1,75.6,59.2,48.9,43.0,34.4,27.9,69,42,18,29.59,29.38,15,3,19,0.00
2012-10-2,67.1,60.3,54.1,57.0,50.4,39.5,83,71,37,29.65,29.59,6,0,6,0.87
2012-10-3,71.6,66.0,61.2,65.4,61.5,56.3,93,86,62,29.74,29.62,4,0,6,0.04
2012-10-4,70.5,68.9,67.6,67.6,64.8,61.6,94,87,76,29.77,29.68,6,0,7,0.31
2012-10-5,82.0,68.8,61.2,62.3,47.3,27.0,89,54,14,29.68,29.56,8,1,10,0.00
2012-10-6,76.5,63.3,53.2,56.3,41.9,24.2,76,49,24,29.59,29.38,14,3,17,0.00
2012-10-7,55.4,50.1,42.4,38.2,30.3,21.4,67,47,28,29.68,29.59,6,1,8,0.08
2012-10-8,57.2,49.8,41.4,38.2,30.8,21.0,76,51,26,29.85,29.65,8,1,8,0.00
2012-10-9,57.7,53.1,47.7,39.6,35.8,31.3,69,53,39,29.83,29.71,10,3,12,0.00
2012-10-10,69.1,57.2,51.6,54.4,39.8,22.6,84,55,26,29.71,29.41,10,2,16,0.28
2012-10-11,65.5,51.6,42.4,28.5,20.9,15.5,56,31,18,29.77,29.53,12,3,14,0.00
2012-10-12,57.2,44.8,36.3,31.1,20.2,8.9,66,40,21,29.97,29.62,13,2,17,0.00
2012-10-13,59.7,43.7,29.1,25.0,14.2,8.7,53,33,17,30.03,29.85,9,1,10,0.00
2012-10-14,71.1,58.5,45.5,47.1,33.7,25.0,61,41,22,29.85,29.56,13,4,15,0.00
2012-10-15,72.1,64.9,59.5,59.0,49.1,39.9,81,59,32,29.56,29.29,12,3,17,0.31
2012-10-16,62.8,53.9,42.6,53.4,27.2,15.6,80,39,18,29.53,29.26,15,4,23,0.00
2012-10-17,64.0,48.8,35.8,31.1,24.4,17.7,69,42,18,29.62,29.50,7,1,8,0.00
2012-10-18,65.8,52.6,38.5,44.6,32.5,25.0,67,49,25,29.68,29.59,10,2,15,0.00
2012-10-19,67.5,64.5,58.8,65.7,60.0,44.1,94,86,58,29.62,29.32,17,5,19,2.28
2012-10-20,76.1,65.1,54.0,62.2,40.2,19.6,93,49,15,29.44,29.29,11,2,13,0.00
2012-10-21,67.8,55.6,46.2,28.7,22.0,16.1,47,28,17,29.59,29.44,13,2,17,0.00
2012-10-22,70.9,56.0,43.7,29.6,24.5,19.3,54,32,17,29.68,29.59,12,3,16,0.00
2012-10-23,63.7,54.3,45.7,48.5,33.3,22.8,76,47,21,29.74,29.65,6,1,8,0.08
2012-10-24,56.8,54.9,53.1,48.8,39.6,28.8,81,59,35,29.83,29.71,6,1,8,0.12
2012-10-25,59.7,56.4,52.7,43.8,38.0,30.5,68,51,35,29.91,29.80,6,1,8,0.00
2012-10-26,65.7,60.7,55.0,46.7,41.9,37.0,70,51,35,29.85,29.74,6,1,8,0.00
2012-10-27,64.4,60.8,58.1,51.0,43.1,36.4,72,54,36,29.74,29.53,6,1,8,0.00
2012-10-28,57.9,55.7,52.9,43.1,32.4,22.0,60,42,27,29.56,29.26,13,6,18,0.00
2012-10-29,60.3,54.1,51.6,52.1,43.6,33.9,77,68,48,29.29,28.44,27,10,33,0.16
2012-10-31,52.3,49.6,47.3,25.5,22.1,19.0,39,34,28,29.18,29.15,11,3,13,0.35
2012-11-1,56.3,48.3,40.6,25.6,23.5,20.3,52,38,26,29.21,29.12,9,2,10,0.00
2012-11-2,56.1,48.6,45.5,25.9,23.1,14.7,44,37,20,29.23,29.18,10,3,15,0.00
2012-11-27,35.6,35.3,34.9,28.3,27.1,26.1,75,72,69,29.83,29.77,6,2,8,0.04
2012-11-28,42.8,35.5,28.9,27.9,15.9,6.4,76,47,25,29.80,29.68,10,2,11,0.20
2012-11-29,47.5,35.5,25.2,13.5,10.0,5.0,53,36,22,29.91,29.77,10,3,13,0.04
2012-11-30,42.6,35.6,30.4,14.7,11.2,5.6,48,36,29,30.06,29.83,9,3,10,0.00
2012-12-1,36.5,33.6,31.1,30.3,17.0,5.1,78,52,31,30.09,29.97,9,3,11,0.00
2012-12-2,49.8,43.3,36.0,44.1,36.4,29.6,92,78,48,29.97,29.65,8,2,10,0.08
2012-12-3,61.0,46.7,36.5,44.7,32.4,22.7,88,62,25,29.85,29.62,9,1,15,0.00
2012-12-4,57.0,48.0,34.5,53.4,41.6,21.9,91,79,57,29.85,29.59,11,2,11,0.04
2012-12-5,57.0,49.2,33.3,49.6,24.5,1.2,86,43,20,29.77,29.50,17,5,23,0.00
2012-12-6,44.2,32.1,25.2,6.7,1.6,-3.3,43,27,20,29.91,29.77,15,3,23,0.00
2012-12-7,43.5,35.6,23.7,37.6,22.0,5.3,81,59,37,29.83,29.59,4,0,4,0.16
2012-12-8,50.9,46.8,42.4,44.3,40.4,36.1,85,78,71,29.62,29.41,8,1,10,0.20
2012-12-9,49.3,43.8,41.5,44.5,29.8,17.1,87,60,34,29.80,29.53,10,3,15,0.08
2012-12-10,57.9,51.3,42.4,56.2,48.5,36.6,94,90,79,29.62,29.15,6,1,8,0.28
2012-12-11,55.4,43.8,36.0,52.9,17.7,8.4,92,36,24,29.77,29.18,11,4,14,0.00
2012-12-12,45.9,35.8,29.5,16.8,11.1,6.1,52,37,22,30.00,29.74,9,1,10,0.00
2012-12-13,49.6,34.5,27.9,14.3,11.2,5.7,53,39,19,30.03,29.85,8,1,8,0.00
2012-12-14,52.0,34.7,24.1,15.5,9.5,5.1,52,37,18,29.88,29.71,8,1,11,0.00
2012-12-15,49.1,34.9,25.5,17.1,12.3,8.1,56,40,21,29.85,29.74,6,1,8,0.00
2012-12-16,38.8,37.4,35.4,33.3,25.5,15.3,82,64,42,29.80,29.50,10,4,14,0.08
2012-12-17,41.2,38.9,37.0,37.4,33.3,30.8,87,80,76,29.53,29.26,11,3,13,0.31
2012-12-18,53.1,45.6,40.8,41.9,35.6,21.6,85,70,41,29.29,29.06,12,2,16,0.87
2012-12-19,51.4,42.5,37.8,22.1,12.2,8.3,45,29,21,29.65,29.15,19,6,23,0.00
2012-12-20,43.7,38.3,32.0,33.2,14.4,7.7,72,38,28,29.80,29.44,9,4,13,0.04
2012-12-21,56.8,45.5,38.3,52.7,29.1,11.0,92,56,32,29.53,28.70,17,8,32,1.57
2012-12-22,38.7,35.8,33.8,20.7,8.2,1.9,53,32,24,29.26,28.85,23,8,28,0.00
2012-12-23,45.1,36.5,32.9,9.4,5.4,2.0,31,27,22,29.44,29.26,13,4,21,0.00
2012-12-24,41.2,32.7,24.4,21.7,7.9,3.5,63,36,23,29.65,29.44,8,1,8,0.00
2012-12-25,40.1,34.1,29.3,27.0,17.7,8.2,76,53,31,29.77,29.44,13,4,14,0.16
2012-12-26,36.1,29.8,24.1,27.0,11.9,1.6,80,49,30,29.83,29.15,27,6,29,0.00
2012-12-27,38.8,35.8,30.9,31.3,21.1,5.2,78,56,33,29.32,28.88,27,9,28,1.54
2012-12-28,41.0,32.1,26.6,11.9,7.2,3.0,52,35,26,29.65,29.29,17,5,23,0.00
2012-12-29,32.7,29.6,24.4,25.2,16.4,9.7,77,58,41,29.62,29.00,12,3,13,0.00
2012-12-30,37.0,29.6,25.7,14.8,3.7,-4.4,54,34,22,29.62,29.06,23,8,26,0.00
2012-12-31,38.5,30.1,18.5,7.9,4.1,-4.6,46,33,26,29.68,29.38,13,3,17,0.16
2013-1-1,39.4,34.8,24.4,10.6,5.2,-5.1,33,28,23,29.50,29.35,17,5,22,0.08